createdAt,value
2023-12-07T00:00:17.964Z,4.57
2023-12-07T00:03:08.204Z,4.70
2023-12-07T00:05:54.694Z,4.87
2023-12-07T00:08:41.271Z,3.87
2023-12-07T00:11:28.092Z,4.43
2023-12-07T00:14:14.793Z,4.57
2023-12-07T00:17:02.720Z,5.10
2023-12-07T00:19:49.756Z,4.00
2023-12-07T00:22:37.387Z,3.90
2023-12-07T00:25:24.007Z,4.20
2023-12-07T00:28:11.060Z,4.00
2023-12-07T00:30:58.172Z,3.43
2023-12-07T00:33:47.180Z,4.03
2023-12-07T00:36:35.020Z,4.17
2023-12-07T00:39:21.741Z,3.63
2023-12-07T00:42:08.558Z,3.73
2023-12-07T00:44:55.206Z,4.57
2023-12-07T00:47:42.253Z,4.30
2023-12-07T00:50:30.820Z,4.80
2023-12-07T00:53:17.469Z,4.07
2023-12-07T00:56:05.311Z,3.70
2023-12-07T00:58:52.458Z,3.13
2023-12-07T01:01:40.018Z,3.73
2023-12-07T01:04:27.132Z,4.13
2023-12-07T01:07:16.310Z,2.97
2023-12-07T01:10:02.897Z,2.80
2023-12-07T01:12:50.521Z,3.50
2023-12-07T01:15:37.333Z,3.80
2023-12-07T01:18:24.011Z,3.63
2023-12-07T01:21:10.814Z,3.50
2023-12-07T01:24:06.626Z,3.73
2023-12-07T01:27:00.415Z,3.43
2023-12-07T01:29:47.462Z,3.90
2023-12-07T01:32:35.329Z,4.00
2023-12-07T01:35:22.485Z,3.30
2023-12-07T01:38:09.281Z,4.33
2023-12-07T01:40:57.070Z,3.73
2023-12-07T01:43:47.572Z,2.77
2023-12-07T01:46:34.906Z,3.30
2023-12-07T01:49:21.695Z,2.70
2023-12-07T01:52:09.594Z,1.80
2023-12-07T01:54:56.343Z,2.43
2023-12-07T01:57:45.547Z,2.40
2023-12-07T02:00:32.896Z,3.03
2023-12-07T02:03:19.770Z,1.70
2023-12-07T02:06:07.358Z,1.97
2023-12-07T02:08:54.065Z,2.10
2023-12-07T02:11:40.640Z,2.00
2023-12-07T02:14:28.851Z,2.27
2023-12-07T02:17:20.067Z,2.00
2023-12-07T02:20:13.248Z,1.67
2023-12-07T02:23:03.841Z,1.27
2023-12-07T02:25:54.036Z,1.73
2023-12-07T02:28:42.439Z,2.80
2023-12-07T02:31:30.142Z,1.60
2023-12-07T02:34:16.738Z,1.73
2023-12-07T02:37:05.187Z,1.57
2023-12-07T02:39:53.578Z,1.43
2023-12-07T02:42:42.157Z,1.50
2023-12-07T02:45:30.252Z,1.47
2023-12-07T02:48:18.420Z,2.13
2023-12-07T02:51:05.824Z,2.33
2023-12-07T02:53:52.209Z,2.07
2023-12-07T02:56:38.848Z,1.57
2023-12-07T02:59:25.470Z,2.10
2023-12-07T03:02:13.451Z,1.70
2023-12-07T03:05:00.365Z,2.13
2023-12-07T03:07:47.026Z,1.67
2023-12-07T03:10:33.556Z,1.77
2023-12-07T03:13:20.246Z,2.63
2023-12-07T03:16:10.657Z,2.43
2023-12-07T03:18:59.153Z,1.50
2023-12-07T03:21:46.017Z,1.50
2023-12-07T03:24:32.836Z,1.20
2023-12-07T03:27:19.764Z,1.23
2023-12-07T03:30:08.133Z,1.10
2023-12-07T03:32:54.646Z,1.50
2023-12-07T03:35:43.167Z,1.33
2023-12-07T03:38:29.904Z,1.10
2023-12-07T03:41:16.685Z,1.47
2023-12-07T03:44:03.630Z,1.63
2023-12-07T03:46:50.726Z,1.47
2023-12-07T03:49:42.162Z,1.53
2023-12-07T03:52:30.475Z,1.00
2023-12-07T03:55:17.235Z,1.23
2023-12-07T03:58:03.830Z,1.27
2023-12-07T04:00:51.136Z,1.33
2023-12-07T04:03:37.932Z,1.67
2023-12-07T04:06:24.707Z,1.77
2023-12-07T04:09:13.053Z,1.67
2023-12-07T04:12:00.056Z,2.10
2023-12-07T04:14:46.557Z,1.93
2023-12-07T04:17:33.174Z,1.70
2023-12-07T04:20:19.825Z,2.53
2023-12-07T04:23:06.556Z,1.70
2023-12-07T04:25:54.690Z,1.40
2023-12-07T04:28:41.286Z,1.17
2023-12-07T04:31:27.847Z,1.50
2023-12-07T04:34:14.611Z,1.50
2023-12-07T04:37:01.228Z,1.47
2023-12-07T04:39:47.813Z,1.80
2023-12-07T04:42:35.990Z,1.97
2023-12-07T04:45:23.291Z,1.17
2023-12-07T04:48:09.961Z,1.83
2023-12-07T04:50:57.248Z,1.40
2023-12-07T04:53:44.011Z,1.20
2023-12-07T04:56:30.486Z,1.63
2023-12-07T04:59:18.755Z,1.47
2023-12-07T05:02:05.813Z,1.10
2023-12-07T05:04:52.365Z,0.93
2023-12-07T05:07:38.906Z,1.43
2023-12-07T05:10:26.557Z,1.47
2023-12-07T05:13:13.508Z,1.93
2023-12-07T05:16:01.763Z,1.80
2023-12-07T05:18:48.802Z,1.60
2023-12-07T05:21:35.352Z,1.30
2023-12-07T05:24:22.124Z,1.30
2023-12-07T05:27:08.632Z,1.53
2023-12-07T05:29:55.884Z,1.73
2023-12-07T05:32:44.033Z,2.00
2023-12-07T05:35:30.656Z,1.37
2023-12-07T05:38:17.901Z,1.30
2023-12-07T05:41:04.951Z,1.10
2023-12-07T05:43:52.472Z,1.60
2023-12-07T05:46:41.166Z,2.00
2023-12-07T05:49:29.248Z,1.37
2023-12-07T05:52:16.069Z,1.47
2023-12-07T05:55:02.842Z,2.07
2023-12-07T05:57:49.575Z,1.80
2023-12-07T06:00:36.321Z,1.53
2023-12-07T06:03:23.328Z,1.50
2023-12-07T06:06:12.316Z,1.07
2023-12-07T06:08:59.238Z,1.57
2023-12-07T06:11:45.754Z,1.57
2023-12-07T06:14:33.325Z,0.93
2023-12-07T06:17:19.951Z,1.50
2023-12-07T06:20:07.828Z,1.87
2023-12-07T06:22:55.891Z,2.00
2023-12-07T06:25:42.795Z,1.50
2023-12-07T06:28:29.681Z,1.23
2023-12-07T06:31:17.001Z,2.07
2023-12-07T06:34:04.056Z,1.83
2023-12-07T06:36:50.939Z,1.30
2023-12-07T06:39:39.153Z,1.37
2023-12-07T06:42:25.901Z,1.43
2023-12-07T06:45:15.322Z,1.20
2023-12-07T06:48:02.976Z,1.33
2023-12-07T06:50:49.800Z,1.50
2023-12-07T06:53:36.454Z,1.30
2023-12-07T06:56:24.461Z,1.70
2023-12-07T06:59:11.372Z,1.37
2023-12-07T07:01:58.010Z,1.63
2023-12-07T07:04:45.575Z,1.30
2023-12-07T07:07:32.573Z,1.10
2023-12-07T07:10:19.232Z,2.07
2023-12-07T07:13:07.933Z,1.40
2023-12-07T07:15:56.100Z,1.27
2023-12-07T07:18:43.010Z,1.30
2023-12-07T07:21:29.783Z,1.33
2023-12-07T07:24:17.144Z,2.17
2023-12-07T07:27:04.057Z,1.13
2023-12-07T07:29:51.800Z,1.30
2023-12-07T07:32:39.039Z,1.20
2023-12-07T07:35:25.894Z,1.60
2023-12-07T07:38:12.912Z,1.83
2023-12-07T07:40:59.828Z,1.37
2023-12-07T07:43:46.593Z,1.47
2023-12-07T07:46:34.718Z,2.17
2023-12-07T07:49:21.391Z,1.43
2023-12-07T07:52:08.808Z,1.43
2023-12-07T07:54:55.625Z,1.83
2023-12-07T07:57:42.136Z,2.43
2023-12-07T08:00:29.300Z,2.13
2023-12-07T08:03:17.557Z,1.87
2023-12-07T08:06:04.828Z,1.67
2023-12-07T08:08:52.132Z,2.10
2023-12-07T08:11:38.924Z,2.10
2023-12-07T08:14:25.410Z,3.05
2023-12-07T08:17:12.518Z,2.07
2023-12-07T08:20:00.745Z,3.03
2023-12-07T08:22:48.128Z,2.93
2023-12-07T08:25:34.864Z,2.93
2023-12-07T08:28:21.612Z,3.27
2023-12-07T08:31:08.901Z,2.47
2023-12-07T08:33:55.936Z,1.37
2023-12-07T08:36:44.118Z,1.33
2023-12-07T08:39:30.946Z,1.77
2023-12-07T08:42:17.374Z,2.00
2023-12-07T08:45:04.115Z,1.43
2023-12-07T08:47:51.278Z,1.83
2023-12-07T08:50:38.354Z,1.93
2023-12-07T08:53:27.521Z,1.70
2023-12-07T08:56:14.901Z,1.90
2023-12-07T08:59:01.846Z,1.80
2023-12-07T09:01:48.420Z,2.40
2023-12-07T09:04:35.739Z,1.80
2023-12-07T09:07:22.566Z,2.10
2023-12-07T09:10:12.321Z,1.80
2023-12-07T09:12:59.278Z,1.77
2023-12-07T09:15:46.031Z,1.87
2023-12-07T09:18:32.769Z,2.10
2023-12-07T09:21:19.292Z,1.83
2023-12-07T09:24:07.492Z,1.83
2023-12-07T09:26:55.992Z,1.80
2023-12-07T09:29:42.476Z,1.40
2023-12-07T09:32:34.010Z,1.90
2023-12-07T09:35:23.851Z,2.03
2023-12-07T09:38:11.038Z,2.00
2023-12-07T09:40:57.915Z,2.07
2023-12-07T09:43:45.791Z,1.90
2023-12-07T09:46:33.347Z,2.07
2023-12-07T09:49:20.924Z,2.77
2023-12-07T09:52:10.016Z,1.73
2023-12-07T09:54:59.047Z,1.67
2023-12-07T09:57:45.791Z,2.57
2023-12-07T10:00:34.642Z,1.73
2023-12-07T10:03:25.811Z,2.80
2023-12-07T10:06:12.350Z,1.77
2023-12-07T10:09:09.063Z,1.90
2023-12-07T10:12:04.817Z,2.77
2023-12-07T10:14:51.404Z,2.23
2023-12-07T10:17:50.879Z,2.27
2023-12-07T10:20:37.599Z,2.90
2023-12-07T10:23:26.398Z,2.23
2023-12-07T10:26:14.004Z,2.17
2023-12-07T10:29:00.922Z,2.77
2023-12-07T10:31:48.125Z,3.00
2023-12-07T10:34:37.408Z,3.00
2023-12-07T10:37:24.978Z,3.17
2023-12-07T10:40:12.646Z,4.07
2023-12-07T10:43:02.011Z,3.23
2023-12-07T10:45:50.174Z,3.73
2023-12-07T10:48:37.897Z,3.10
2023-12-07T10:51:36.622Z,3.03
2023-12-07T10:54:28.621Z,3.67
2023-12-07T10:57:16.478Z,2.93
2023-12-07T11:00:04.512Z,2.77
2023-12-07T11:02:51.421Z,2.90
2023-12-07T11:05:38.462Z,2.40
2023-12-07T11:08:34.202Z,2.33
2023-12-07T11:11:27.212Z,1.80
2023-12-07T11:14:15.281Z,2.23
2023-12-07T11:17:01.960Z,1.83
2023-12-07T11:19:54.180Z,2.00
2023-12-07T11:22:43.733Z,2.50
2023-12-07T11:25:32.333Z,2.67
2023-12-07T11:28:19.770Z,2.13
2023-12-07T11:31:08.715Z,2.17
2023-12-07T11:33:56.123Z,2.70
2023-12-07T11:36:42.768Z,1.90
2023-12-07T11:39:30.691Z,2.20
2023-12-07T11:42:22.158Z,1.90
2023-12-07T11:45:10.491Z,1.93
2023-12-07T11:48:09.428Z,2.10
2023-12-07T11:51:00.876Z,1.70
2023-12-07T11:53:49.815Z,2.67
2023-12-07T11:56:37.264Z,1.83
2023-12-07T11:59:33.541Z,2.00
2023-12-07T12:02:21.025Z,1.70
2023-12-07T12:05:08.288Z,1.83
2023-12-07T12:07:55.546Z,2.13
2023-12-07T12:10:44.074Z,2.77
2023-12-07T12:13:31.680Z,2.43
2023-12-07T12:16:19.915Z,2.43
2023-12-07T12:19:08.548Z,2.47
2023-12-07T12:21:57.034Z,2.53
2023-12-07T12:24:44.112Z,2.90
2023-12-07T12:27:32.032Z,2.57
2023-12-07T12:30:20.078Z,2.10
2023-12-07T12:33:08.938Z,2.30
2023-12-07T12:36:08.069Z,3.17
2023-12-07T12:38:55.336Z,2.30
2023-12-07T12:41:41.904Z,2.70
2023-12-07T12:44:35.771Z,3.00
2023-12-07T12:47:24.860Z,2.53
2023-12-07T12:50:13.997Z,2.70
2023-12-07T12:53:00.793Z,2.53
2023-12-07T12:55:49.059Z,2.40
2023-12-07T12:58:36.152Z,2.90
2023-12-07T13:01:25.954Z,2.50
2023-12-07T13:04:12.703Z,2.37
2023-12-07T13:07:01.367Z,2.43
2023-12-07T13:09:48.298Z,2.60
2023-12-07T13:12:36.495Z,2.50
2023-12-07T13:15:23.399Z,2.50
2023-12-07T13:18:10.231Z,2.97
2023-12-07T13:20:56.992Z,2.90
2023-12-07T13:23:47.838Z,2.77
2023-12-07T13:26:35.104Z,3.00
2023-12-07T13:29:28.960Z,2.57
2023-12-07T13:32:22.060Z,3.07
2023-12-07T13:35:10.009Z,3.00
2023-12-07T13:37:57.047Z,2.90
2023-12-07T13:40:45.141Z,3.93
2023-12-07T13:43:33.530Z,3.00
2023-12-07T13:46:21.035Z,2.43
2023-12-07T13:49:14.025Z,2.90
2023-12-07T13:52:08.291Z,3.33
2023-12-07T13:54:55.957Z,2.67
2023-12-07T13:57:44.265Z,4.60
2023-12-07T14:00:31.158Z,4.30
2023-12-07T14:03:17.769Z,3.83
2023-12-07T14:06:12.070Z,3.60
2023-12-07T14:09:05.209Z,2.60
2023-12-07T14:11:51.844Z,3.23
2023-12-07T14:14:39.906Z,3.03
2023-12-07T14:17:32.849Z,2.50
2023-12-07T14:23:20.161Z,3.20
2023-12-07T14:26:07.536Z,3.10
2023-12-07T14:28:54.378Z,2.90
2023-12-07T14:31:42.695Z,2.70
2023-12-07T14:34:34.442Z,3.23
2023-12-07T14:37:22.764Z,2.97
2023-12-07T14:40:10.977Z,3.27
2023-12-07T14:42:58.029Z,3.23
2023-12-07T14:45:44.909Z,2.70
2023-12-07T14:48:33.796Z,2.57
2023-12-07T14:51:21.636Z,2.40
2023-12-07T14:54:12.595Z,2.77
2023-12-07T14:56:59.727Z,2.40
2023-12-07T14:59:46.816Z,2.80
2023-12-07T15:02:33.385Z,2.67
2023-12-07T15:05:21.647Z,2.37
2023-12-07T15:08:08.376Z,3.73
2023-12-07T15:10:57.026Z,3.60
2023-12-07T15:13:43.930Z,3.20
2023-12-07T15:16:30.900Z,3.37
2023-12-07T15:19:18.518Z,4.23
2023-12-07T15:22:06.464Z,3.67
2023-12-07T15:24:54.521Z,3.90
2023-12-07T15:27:43.038Z,3.77
2023-12-07T15:30:30.736Z,3.83
2023-12-07T15:33:18.256Z,3.93
2023-12-07T15:36:06.668Z,4.30
2023-12-07T15:38:55.518Z,3.27
2023-12-07T15:41:44.393Z,4.17
2023-12-07T15:44:32.463Z,3.07
2023-12-07T15:47:20.091Z,3.60
2023-12-07T15:50:07.919Z,3.87
2023-12-07T15:52:54.585Z,3.80
2023-12-07T15:55:42.822Z,3.07
2023-12-07T15:58:29.525Z,3.30
2023-12-07T16:01:16.258Z,3.03
2023-12-07T16:04:03.062Z,3.80
2023-12-07T16:06:50.099Z,4.30
2023-12-07T16:09:37.929Z,4.97
2023-12-07T16:12:26.491Z,4.70
2023-12-07T16:15:13.703Z,5.80
2023-12-07T16:18:00.498Z,5.47
2023-12-07T16:20:48.454Z,5.50
2023-12-07T16:23:35.497Z,3.83
2023-12-07T16:26:22.432Z,3.67
2023-12-07T16:29:10.903Z,3.40
2023-12-07T16:31:57.381Z,3.47
2023-12-07T16:34:44.031Z,3.57
2023-12-07T16:37:30.962Z,3.10
2023-12-07T16:40:17.746Z,2.73
2023-12-07T16:43:04.374Z,3.43
2023-12-07T16:45:53.497Z,3.70
2023-12-07T16:48:40.519Z,4.37
2023-12-07T16:51:27.615Z,3.63
2023-12-07T16:54:14.492Z,3.90
2023-12-07T16:57:01.525Z,4.47
2023-12-07T16:59:48.596Z,5.00
2023-12-07T17:02:37.107Z,4.00
2023-12-07T17:05:24.076Z,4.10
2023-12-07T17:08:10.841Z,4.23
2023-12-07T17:10:58.042Z,3.83
2023-12-07T17:13:46.356Z,4.07
2023-12-07T17:16:34.027Z,2.97
2023-12-07T17:19:22.761Z,3.93
2023-12-07T17:22:10.754Z,4.20
2023-12-07T17:24:57.531Z,3.53
2023-12-07T17:27:44.364Z,4.40
2023-12-07T17:30:31.287Z,4.23
2023-12-07T17:33:18.160Z,4.37
2023-12-07T17:36:06.955Z,3.83
2023-12-07T17:38:54.479Z,3.90
2023-12-07T17:41:41.851Z,4.17
2023-12-07T17:44:29.996Z,5.00
2023-12-07T17:47:17.622Z,4.33
2023-12-07T17:50:04.935Z,5.13
2023-12-07T17:52:53.379Z,4.87
2023-12-07T17:55:40.186Z,5.57
2023-12-07T17:58:26.871Z,4.87
2023-12-07T18:01:20.603Z,4.80
2023-12-07T18:04:07.583Z,4.93
2023-12-07T18:06:54.141Z,5.60
2023-12-07T18:09:43.889Z,4.17
2023-12-07T18:12:30.503Z,3.50
2023-12-07T18:15:18.875Z,2.53
2023-12-07T18:18:06.116Z,2.60
2023-12-07T18:20:52.857Z,2.60
2023-12-07T18:23:39.441Z,2.43
2023-12-07T18:26:27.505Z,2.30
2023-12-07T18:29:14.536Z,1.77
2023-12-07T18:32:02.234Z,2.67
2023-12-07T18:34:49.466Z,2.90
2023-12-07T18:37:38.313Z,2.70
2023-12-07T18:40:26.803Z,2.63
2023-12-07T18:43:15.933Z,2.17
2023-12-07T18:46:06.027Z,2.80
2023-12-07T18:48:52.943Z,2.57
2023-12-07T18:51:39.999Z,2.40
2023-12-07T18:54:27.382Z,1.93
2023-12-07T18:57:14.535Z,3.50
2023-12-07T19:00:02.756Z,2.53
2023-12-07T19:02:49.589Z,3.57
2023-12-07T19:05:36.324Z,2.83
2023-12-07T19:08:23.774Z,2.97
2023-12-07T19:11:10.461Z,3.97
2023-12-07T19:13:57.016Z,3.13
2023-12-07T19:16:45.405Z,2.60
2023-12-07T19:19:32.518Z,2.67
2023-12-07T19:22:19.392Z,2.40
2023-12-07T19:25:06.901Z,4.10
2023-12-07T19:27:55.194Z,2.73
2023-12-07T19:30:42.331Z,3.50
2023-12-07T19:33:33.590Z,3.40
2023-12-07T19:36:20.697Z,4.80
2023-12-07T19:39:07.351Z,3.67
2023-12-07T19:41:53.809Z,4.33
2023-12-07T19:44:40.479Z,3.80
2023-12-07T19:47:28.159Z,3.83
2023-12-07T19:50:16.513Z,3.77
2023-12-07T19:53:03.034Z,3.17
2023-12-07T19:55:49.759Z,3.70
2023-12-07T19:58:37.321Z,2.73
2023-12-07T20:01:24.431Z,3.07
2023-12-07T20:04:12.141Z,2.90
2023-12-07T20:07:00.575Z,3.20
2023-12-07T20:09:47.775Z,2.30
2023-12-07T20:12:36.252Z,3.37
2023-12-07T20:15:22.977Z,2.60
2023-12-07T20:18:09.716Z,3.23
2023-12-07T20:20:57.087Z,3.10
2023-12-07T20:23:45.960Z,3.10
2023-12-07T20:26:32.881Z,2.80
2023-12-07T20:29:20.854Z,2.70
2023-12-07T20:32:08.032Z,3.30
2023-12-07T20:34:54.752Z,2.93
2023-12-07T20:37:41.815Z,3.10
2023-12-07T20:40:29.844Z,3.33
2023-12-07T20:43:16.616Z,3.63
2023-12-07T20:46:04.513Z,3.40
2023-12-07T20:48:51.777Z,3.10
2023-12-07T20:51:38.518Z,3.57
2023-12-07T20:54:25.549Z,3.60
2023-12-07T20:57:14.035Z,2.60
2023-12-07T21:00:00.903Z,3.07
2023-12-07T21:02:47.561Z,3.20
2023-12-07T21:05:34.368Z,3.27
2023-12-07T21:08:21.072Z,3.43
2023-12-07T21:11:10.300Z,3.03
2023-12-07T21:13:58.497Z,2.93
2023-12-07T21:16:46.294Z,2.67
2023-12-07T21:19:33.052Z,3.67
2023-12-07T21:22:20.584Z,2.30
2023-12-07T21:25:10.331Z,2.63
2023-12-07T21:27:57.168Z,2.33
2023-12-07T21:30:45.051Z,2.10
2023-12-07T21:33:31.818Z,2.07
2023-12-07T21:36:18.850Z,2.33
2023-12-07T21:39:05.986Z,2.03
2023-12-07T21:41:52.856Z,1.77
2023-12-07T21:44:40.052Z,1.87
2023-12-07T21:47:28.440Z,2.70
2023-12-07T21:50:15.272Z,1.77
2023-12-07T21:53:02.248Z,1.77
2023-12-07T21:55:49.264Z,2.77
2023-12-07T21:58:36.518Z,2.27
2023-12-07T22:01:23.309Z,2.20
2023-12-07T22:04:11.413Z,2.83
2023-12-07T22:06:58.920Z,2.53
2023-12-07T22:09:45.693Z,2.17
2023-12-07T22:12:32.341Z,2.97
2023-12-07T22:15:19.123Z,1.60
2023-12-07T22:18:05.984Z,2.17
2023-12-07T22:20:54.397Z,2.80
2023-12-07T22:23:42.181Z,2.37
2023-12-07T22:26:29.108Z,3.57
2023-12-07T22:29:16.077Z,3.57
2023-12-07T22:32:02.816Z,3.43
2023-12-07T22:34:49.740Z,2.17
2023-12-07T22:37:37.852Z,2.77
2023-12-07T22:40:24.844Z,2.10
2023-12-07T22:43:11.402Z,2.30
2023-12-07T22:45:57.896Z,2.13
2023-12-07T22:48:44.618Z,1.67
2023-12-07T22:51:31.574Z,1.70
2023-12-07T22:54:19.553Z,2.13
2023-12-07T22:57:07.109Z,2.70
2023-12-07T22:59:54.040Z,2.47
2023-12-07T23:02:40.567Z,3.53
2023-12-07T23:05:27.082Z,5.60
2023-12-07T23:08:13.944Z,4.83
2023-12-07T23:11:02.247Z,2.73
2023-12-07T23:13:49.070Z,2.43
2023-12-07T23:16:35.770Z,2.27
2023-12-07T23:19:22.479Z,2.50
2023-12-07T23:22:09.422Z,3.23
2023-12-07T23:24:56.200Z,2.53
2023-12-07T23:27:44.164Z,2.73
2023-12-07T23:30:30.927Z,5.67
2023-12-07T23:33:17.617Z,5.20
2023-12-07T23:36:05.126Z,5.13
2023-12-07T23:38:51.955Z,5.03
2023-12-07T23:41:38.459Z,3.10
2023-12-07T23:44:26.484Z,3.40
2023-12-07T23:47:13.300Z,3.97
2023-12-07T23:49:59.953Z,3.80
2023-12-07T23:52:46.617Z,4.43
2023-12-07T23:55:33.259Z,4.30
2023-12-07T23:58:19.900Z,4.97
